Terminal Aerodrome Forecast
Issued by NWS

Home | Current Version | Previous Version | Text Only | Print | Product List | Glossary On
Versions: 1 2 3 4 5 6 7 8 9 10 11 12 13 14 15
839
FTUS46 KMFR 061739
TAFOTH
TAF
KOTH 061739Z 0618/0718 34010KT P6SM SKC
     FM062000 35020G30KT P6SM SKC
     FM070400 35015G25KT P6SM BKN025 BKN040
     FM070600 35011KT P6SM OVC012=

USA.gov is the U.S. government's official web portal to all federal, state and local government web resources and services.